createdAt,value
2023-01-11T00:02:34.979Z,31.23
2023-01-11T00:07:37.976Z,34.45
2023-01-11T00:13:01.888Z,29.33
2023-01-11T00:18:04.688Z,31.83
2023-01-11T00:23:07.969Z,40.72
2023-01-11T00:28:11.622Z,27.40
2023-01-11T00:33:15.599Z,28.65
2023-01-11T00:38:41.967Z,26.52
2023-01-11T00:44:05.379Z,26.15
2023-01-11T00:49:07.752Z,27.75
2023-01-11T00:54:20.367Z,31.23
2023-01-11T00:59:23.213Z,27.30
2023-01-11T01:04:33.716Z,24.77
2023-01-11T01:09:36.190Z,29.85
2023-01-11T01:14:39.024Z,26.50
2023-01-11T01:19:41.407Z,25.53
2023-01-11T01:24:45.557Z,24.52
2023-01-11T01:29:48.077Z,27.98
2023-01-11T01:34:50.477Z,25.15
2023-01-11T01:39:54.157Z,20.60
2023-01-11T01:50:39.221Z,24.40
2023-01-11T01:56:06.970Z,23.50
2023-01-11T02:01:33.577Z,24.85
2023-01-11T02:06:36.886Z,19.80
2023-01-11T02:11:43.522Z,23.38
2023-01-11T02:17:00.484Z,23.35
2023-01-11T02:22:25.348Z,21.95
2023-01-11T02:27:54.025Z,20.40
2023-01-11T02:33:15.115Z,17.55
2023-01-11T02:38:50.968Z,19.58
2023-01-11T02:44:37.194Z,22.58
2023-01-11T02:49:46.060Z,21.63
2023-01-11T02:54:57.192Z,16.17
2023-01-11T03:00:04.437Z,18.17
2023-01-11T03:05:15.018Z,18.42
2023-01-11T03:10:36.591Z,17.23
2023-01-11T03:16:08.761Z,14.02
2023-01-11T03:21:17.277Z,13.65
2023-01-11T03:26:39.121Z,17.42
2023-01-11T03:31:52.349Z,15.43
2023-01-11T03:37:20.106Z,15.77
2023-01-11T03:42:29.322Z,15.98
2023-01-11T03:47:33.423Z,12.00
2023-01-11T03:52:38.682Z,15.27
2023-01-11T03:57:45.048Z,17.00
2023-01-11T04:02:47.565Z,14.07
2023-01-11T04:07:50.127Z,14.77
2023-01-11T04:12:52.529Z,13.35
2023-01-11T04:22:58.839Z,12.38
2023-01-11T04:28:01.425Z,12.07
2023-01-11T04:33:03.883Z,14.95
2023-01-11T04:38:06.548Z,11.00
2023-01-11T04:43:10.078Z,14.55
2023-01-11T04:48:12.720Z,12.93
2023-01-11T04:53:15.068Z,14.27
2023-01-11T04:58:17.448Z,14.20
2023-01-11T05:03:19.828Z,13.10
2023-01-11T05:08:22.146Z,12.70
2023-01-11T05:13:41.709Z,12.20
2023-01-11T05:18:50.306Z,13.20
2023-01-11T05:23:54.508Z,16.33
2023-01-11T05:28:59.924Z,14.33
2023-01-11T05:34:03.436Z,18.05
2023-01-11T05:39:06.301Z,25.77
2023-01-11T05:44:30.711Z,17.40
2023-01-11T05:49:33.380Z,16.45
2023-01-11T05:54:37.885Z,14.43
2023-01-11T05:59:40.323Z,13.93
2023-01-11T06:04:42.686Z,13.10
2023-01-11T06:09:45.115Z,10.45
2023-01-11T06:14:47.577Z,13.60
2023-01-11T06:19:49.916Z,12.02
2023-01-11T06:24:52.396Z,9.85
2023-01-11T06:29:54.749Z,10.85
2023-01-11T06:34:57.158Z,12.82
2023-01-11T06:39:59.497Z,17.58
2023-01-11T06:45:02.073Z,17.58
2023-01-11T06:50:05.833Z,15.70
2023-01-11T07:00:17.246Z,17.38
2023-01-11T07:05:21.070Z,19.98
2023-01-11T07:15:26.222Z,18.73
2023-01-11T07:20:29.143Z,21.30
2023-01-11T07:25:32.677Z,21.73
2023-01-11T07:30:55.547Z,34.63
2023-01-11T07:36:02.273Z,45.47
2023-01-11T07:41:25.913Z,31.95
2023-01-11T07:46:29.797Z,36.92
2023-01-11T07:51:32.943Z,32.28
2023-01-11T07:56:35.321Z,27.48
2023-01-11T08:01:37.677Z,24.13
2023-01-11T08:06:44.638Z,33.45
2023-01-11T08:12:07.472Z,49.25
2023-01-11T08:17:15.219Z,41.20
2023-01-11T08:22:18.297Z,26.67
2023-01-11T08:27:20.676Z,44.55
2023-01-11T08:32:28.273Z,25.23
2023-01-11T08:37:32.857Z,85.80
2023-01-11T08:42:35.355Z,57.10
2023-01-11T08:47:37.923Z,72.75
2023-01-11T08:52:43.640Z,67.45
2023-01-11T08:57:46.880Z,39.95
2023-01-11T09:02:49.437Z,47.60
2023-01-11T09:08:22.142Z,78.95
2023-01-11T09:13:40.356Z,24.13
2023-01-11T09:18:44.344Z,41.13
2023-01-11T09:23:47.312Z,88.55
2023-01-11T09:28:52.926Z,61.90
2023-01-11T09:33:55.582Z,58.30
2023-01-11T09:39:00.569Z,36.85
2023-01-11T09:44:19.609Z,16.65
2023-01-11T09:49:28.181Z,13.77
2023-01-11T09:54:30.890Z,14.38
2023-01-11T10:00:10.154Z,14.07
2023-01-11T10:05:51.566Z,18.35
2023-01-11T10:18:28.980Z,13.88
2023-01-11T10:22:40.352Z,12.75
2023-01-11T10:27:56.815Z,13.73
2023-01-11T10:33:20.169Z,35.45
2023-01-11T10:39:11.158Z,27.70
2023-01-11T10:44:23.788Z,23.60
2023-01-11T10:49:45.467Z,20.88
2023-01-11T10:54:53.384Z,17.85
2023-01-11T11:00:21.433Z,16.80
2023-01-11T11:06:14.968Z,35.58
2023-01-11T11:11:23.023Z,15.60
2023-01-11T11:16:46.824Z,15.63
2023-01-11T11:21:49.806Z,16.38
2023-01-11T11:26:57.840Z,28.45
2023-01-11T11:32:02.366Z,27.73
2023-01-11T11:37:05.204Z,33.97
2023-01-11T11:42:15.666Z,22.17
2023-01-11T11:47:18.638Z,34.97
2023-01-11T11:52:24.224Z,24.15
2023-01-11T11:57:35.212Z,48.97
2023-01-11T12:08:51.159Z,57.28
2023-01-11T12:14:03.791Z,72.32
2023-01-11T12:19:30.578Z,45.60
2023-01-11T12:24:33.998Z,29.70
2023-01-11T12:30:08.544Z,22.53
2023-01-11T12:35:32.329Z,34.00
2023-01-11T12:40:53.496Z,37.95
2023-01-11T12:46:08.976Z,24.10
2023-01-11T12:51:20.495Z,27.08
2023-01-11T12:56:22.846Z,90.35
2023-01-11T13:01:48.060Z,63.72
2023-01-11T13:06:56.770Z,40.60
2023-01-11T13:12:07.601Z,53.70
2023-01-11T13:17:33.241Z,63.10
2023-01-11T13:22:39.419Z,55.30
2023-01-11T13:27:43.125Z,52.72
2023-01-11T13:33:15.245Z,53.67
2023-01-11T13:38:41.852Z,38.10
2023-01-11T13:43:58.254Z,42.70
2023-01-11T13:49:42.866Z,37.88
2023-01-11T14:02:15.847Z,29.00
2023-01-11T14:07:43.798Z,86.60
2023-01-11T14:13:04.605Z,93.93
2023-01-11T14:18:18.860Z,71.90
2023-01-11T14:23:27.266Z,71.45
2023-01-11T14:29:02.699Z,82.28
2023-01-11T14:34:42.597Z,59.30
2023-01-11T14:40:57.883Z,83.55
2023-01-11T14:52:53.009Z,102.82
2023-01-11T14:58:06.555Z,107.57
2023-01-11T15:16:36.888Z,65.30
2023-01-11T15:21:48.156Z,45.85
2023-01-11T15:26:51.988Z,43.22
2023-01-11T15:32:03.780Z,43.00
2023-01-11T15:37:37.491Z,33.80
2023-01-11T15:43:01.404Z,36.47
2023-01-11T15:48:13.991Z,41.90
2023-01-11T15:53:31.790Z,53.78
2023-01-11T15:58:46.441Z,55.13
2023-01-11T16:04:37.042Z,36.28
2023-01-11T16:09:57.802Z,29.40
2023-01-11T16:15:23.187Z,18.98
2023-01-11T16:20:28.492Z,19.83
2023-01-11T16:25:34.596Z,51.70
2023-01-11T16:30:37.087Z,45.22
2023-01-11T16:35:39.393Z,41.35
2023-01-11T16:40:43.321Z,58.33
2023-01-11T16:45:51.372Z,73.50
2023-01-11T16:51:01.295Z,75.40
2023-01-11T16:56:09.283Z,58.10
2023-01-11T17:01:14.348Z,52.65
2023-01-11T17:06:19.881Z,71.18
2023-01-11T17:11:35.831Z,47.92
2023-01-11T17:16:40.946Z,38.67
2023-01-11T17:22:04.785Z,37.33
2023-01-11T17:27:09.196Z,44.35
2023-01-11T17:32:17.255Z,86.63
2023-01-11T17:37:20.984Z,96.28
2023-01-11T17:47:47.916Z,202.80
2023-01-11T17:52:57.634Z,163.93
2023-01-11T17:58:18.191Z,123.35
2023-01-11T18:03:21.774Z,79.55
2023-01-11T18:08:24.294Z,45.05
2023-01-11T18:13:37.056Z,36.78
2023-01-11T18:18:47.441Z,29.98
2023-01-11T18:23:49.813Z,28.52
2023-01-11T18:28:52.285Z,30.90
2023-01-11T18:33:55.012Z,33.63
2023-01-11T18:38:57.434Z,31.23
2023-01-11T18:44:00.637Z,42.53
2023-01-11T18:49:29.060Z,44.33
2023-01-11T18:54:31.662Z,54.95
2023-01-11T19:11:34.807Z,24.98
2023-01-11T19:28:18.506Z,43.83
2023-01-11T19:38:26.191Z,56.03
2023-01-11T19:43:29.897Z,44.28
2023-01-11T19:48:34.498Z,40.92
2023-01-11T19:53:38.076Z,36.15
2023-01-11T19:58:41.066Z,29.75
2023-01-11T20:03:46.085Z,20.52
2023-01-11T20:08:48.654Z,20.85
2023-01-11T20:13:52.276Z,18.58
2023-01-11T20:23:59.347Z,11.43
2023-01-11T20:29:06.476Z,13.98
2023-01-11T20:34:11.539Z,13.68
2023-01-11T20:39:14.557Z,13.00
2023-01-11T20:44:21.761Z,11.85
2023-01-11T20:49:29.859Z,13.13
2023-01-11T20:54:32.768Z,14.27
2023-01-11T20:59:35.409Z,37.97
2023-01-11T21:16:08.504Z,77.22
2023-01-11T21:21:15.555Z,79.10
2023-01-11T21:27:28.728Z,71.88
2023-01-11T21:33:09.592Z,89.35
2023-01-11T21:38:39.907Z,95.53
2023-01-11T21:49:36.820Z,84.10
2023-01-11T21:55:23.851Z,56.08
2023-01-11T22:00:28.862Z,34.83
2023-01-11T22:05:35.903Z,26.13
2023-01-11T22:17:07.462Z,36.85
2023-01-11T22:27:29.672Z,36.13
2023-01-11T22:32:37.718Z,30.48
2023-01-11T22:37:58.019Z,21.80
2023-01-11T22:43:00.443Z,24.48
2023-01-11T22:48:03.097Z,24.52
2023-01-11T22:53:05.590Z,19.90
2023-01-11T23:03:32.298Z,22.92
2023-01-11T23:08:40.965Z,20.70
2023-01-11T23:13:52.691Z,20.27
2023-01-11T23:18:55.089Z,18.27
2023-01-11T23:23:57.661Z,17.95
2023-01-11T23:29:00.149Z,19.10
2023-01-11T23:34:03.424Z,16.80
2023-01-11T23:39:08.097Z,16.52
2023-01-11T23:44:12.942Z,28.17
2023-01-11T23:49:18.103Z,26.13
2023-01-11T23:54:21.132Z,26.38
2023-01-11T23:59:24.256Z,19.55
